Time;durP1;ratioP1;P1;durP2;ratioP2;P2;SDS_P1;SDS_P2;PMS_P1;PMS_P2;Temp;Humidity;BMP_temperature;BMP_pressure;BME280_temperature;BME280_humidity;BME280_pressure;Samples;Min_cycle;Max_cycle;Signal;HPM_P1;HPM_P2
2023/04/17 00:00:35;;;;;;;33.30;13.40;;;;;;;5.89;100.00;102688.97;4964859;28;20049;-73
2023/04/17 00:03:01;;;;;;;34.78;13.95;;;;;;;5.89;100.00;102694.22;4963111;28;20046;-73
2023/04/17 00:05:27;;;;;;;36.50;13.13;;;;;;;5.89;100.00;102692.44;4964895;28;20034;-73
2023/04/17 00:07:53;;;;;;;31.65;13.02;;;;;;;5.91;100.00;102700.34;4963955;28;20631;-73
2023/04/17 00:10:19;;;;;;;31.75;12.88;;;;;;;5.91;100.00;102698.63;4963655;28;20121;-72
2023/04/17 00:12:44;;;;;;;37.85;13.60;;;;;;;5.94;100.00;102695.13;4964367;28;20038;-73
2023/04/17 00:15:10;;;;;;;37.88;13.77;;;;;;;5.95;100.00;102695.09;4964491;28;20662;-73
2023/04/17 00:17:36;;;;;;;34.90;12.57;;;;;;;5.96;100.00;102690.75;4978144;28;20121;-72
2023/04/17 00:20:06;;;;;;;34.67;12.98;;;;;;;5.95;100.00;102692.47;4959560;28;20293;-73
2023/04/17 00:22:32;;;;;;;41.03;13.75;;;;;;;5.96;100.00;102696.00;4964183;28;20906;-73
2023/04/17 00:24:58;;;;;;;38.50;14.02;;;;;;;5.96;100.00;102686.38;4948451;28;20044;-72
2023/04/17 00:27:24;;;;;;;37.72;14.07;;;;;;;5.98;100.00;102694.25;4975477;28;20061;-73
2023/04/17 00:29:49;;;;;;;36.95;13.77;;;;;;;6.00;100.00;102692.50;4964721;28;20054;-74
2023/04/17 00:32:15;;;;;;;34.00;12.90;;;;;;;6.00;100.00;102699.50;4949033;28;20042;-74
2023/04/17 00:34:41;;;;;;;32.65;13.05;;;;;;;5.97;100.00;102698.63;4968884;28;20713;-74
2023/04/17 00:37:06;;;;;;;33.33;13.35;;;;;;;6.01;100.00;102701.25;4966819;28;20068;-74
2023/04/17 00:39:32;;;;;;;32.08;12.63;;;;;;;6.01;100.00;102698.63;4966996;28;20132;-74
2023/04/17 00:41:57;;;;;;;40.58;13.70;;;;;;;6.01;100.00;102689.00;4982795;28;20050;-74
2023/04/17 00:44:23;;;;;;;26.60;11.82;;;;;;;6.00;100.00;102697.78;4966750;28;20034;-73
2023/04/17 00:46:48;;;;;;;30.63;12.45;;;;;;;5.99;100.00;102693.38;4968072;28;20046;-72
2023/04/17 00:49:14;;;;;;;32.80;12.23;;;;;;;5.97;100.00;102689.84;4955253;28;20173;-72
2023/04/17 00:51:40;;;;;;;37.97;13.20;;;;;;;5.96;100.00;102694.25;4967860;28;20049;-72
2023/04/17 00:54:06;;;;;;;30.35;13.10;;;;;;;5.97;100.00;102695.13;4947570;28;20081;-72
2023/04/17 00:56:32;;;;;;;34.50;12.10;;;;;;;5.96;100.00;102691.63;4968190;28;20049;-72
2023/04/17 00:58:58;;;;;;;32.22;12.43;;;;;;;5.96;100.00;102686.38;4982885;28;20031;-72
2023/04/17 01:01:30;;;;;;;36.20;12.75;;;;;;;5.96;100.00;102691.63;4935036;28;20731;-73
2023/04/17 01:03:58;;;;;;;36.63;13.30;;;;;;;5.97;100.00;102692.50;4968464;28;20225;-72
2023/04/17 01:06:25;;;;;;;33.17;13.27;;;;;;;5.99;100.00;102690.72;4967733;28;20385;-73
2023/04/17 01:08:50;;;;;;;33.60;12.90;;;;;;;5.99;100.00;102693.38;4967517;28;20045;-73
2023/04/17 01:11:16;;;;;;;30.70;13.48;;;;;;;5.97;100.00;102693.38;4948141;28;20434;-73
2023/04/17 01:13:51;;;;;;;30.17;12.75;;;;;;;5.96;100.00;102696.00;4968060;28;20043;-73
2023/04/17 01:16:17;;;;;;;33.38;13.38;;;;;;;5.95;100.00;102704.75;4983039;28;20502;-73
2023/04/17 01:18:43;;;;;;;34.38;13.43;;;;;;;5.96;100.00;102696.88;4980521;28;20026;-72
2023/04/17 01:21:09;;;;;;;31.58;13.82;;;;;;;5.96;100.00;102696.88;4968037;28;20251;-73
2023/04/17 01:23:48;;;;;;;34.17;13.70;;;;;;;5.96;100.00;102706.50;4981898;28;20682;-73
2023/04/17 01:26:19;;;;;;;36.13;13.40;;;;;;;5.98;100.00;102710.00;4967528;28;20034;-73
2023/04/17 01:28:52;;;;;;;32.17;12.40;;;;;;;5.97;100.00;102719.66;4948948;28;20181;-73
2023/04/17 01:31:17;;;;;;;32.97;12.27;;;;;;;5.96;100.00;102714.41;4965435;28;20088;-73
2023/04/17 01:33:43;;;;;;;33.40;12.95;;;;;;;5.95;100.00;102716.13;4966916;28;20031;-73
2023/04/17 01:36:08;;;;;;;33.97;13.45;;;;;;;5.96;100.00;102706.50;4965439;28;20078;-73
2023/04/17 01:38:34;;;;;;;32.42;12.93;;;;;;;5.94;100.00;102713.53;4967067;28;20062;-73
2023/04/17 01:41:07;;;;;;;30.33;12.98;;;;;;;5.93;100.00;102712.63;4951238;28;20481;-73
2023/04/17 01:43:32;;;;;;;27.88;12.18;;;;;;;5.93;100.00;102710.00;4968669;28;20480;-73
2023/04/17 01:45:58;;;;;;;29.38;12.57;;;;;;;5.93;100.00;102711.75;4965549;28;20117;-73
2023/04/17 01:48:23;;;;;;;35.72;13.25;;;;;;;5.93;100.00;102725.78;4966647;28;20042;-72
2023/04/17 01:50:49;;;;;;;28.38;12.50;;;;;;;5.91;100.00;102713.50;4967569;28;20042;-73
2023/04/17 01:53:14;;;;;;;28.40;11.63;;;;;;;5.91;100.00;102724.91;4947366;28;20056;-73
2023/04/17 01:55:40;;;;;;;30.23;13.02;;;;;;;5.90;100.00;102717.91;4965498;28;20694;-73
2023/04/17 01:58:05;;;;;;;30.85;12.77;;;;;;;5.92;100.00;102717.88;4966982;28;20634;-72
2023/04/17 02:00:31;;;;;;;31.58;11.88;;;;;;;5.92;100.00;102715.25;4966964;28;20570;-72
2023/04/17 02:02:56;;;;;;;27.77;12.23;;;;;;;5.91;100.00;102714.38;4964791;28;20034;-73
2023/04/17 02:05:22;;;;;;;25.75;12.05;;;;;;;5.87;100.00;102717.00;4966626;28;20035;-72
2023/04/17 02:07:49;;;;;;;28.83;11.68;;;;;;;5.87;100.00;102720.50;4964168;28;20046;-72
2023/04/17 02:10:15;;;;;;;25.38;11.13;;;;;;;5.85;100.00;102722.25;4948753;28;20058;-72
2023/04/17 02:12:40;;;;;;;29.05;11.38;;;;;;;5.82;100.00;102719.59;4966360;28;20129;-72
2023/04/17 02:15:06;;;;;;;26.60;10.52;;;;;;;5.82;100.00;102719.59;4948377;28;20137;-73
2023/04/17 02:17:32;;;;;;;25.33;11.02;;;;;;;5.79;100.00;102717.84;4965904;28;20034;-72
2023/04/17 02:19:57;;;;;;;24.08;11.35;;;;;;;5.76;100.00;102723.06;4963057;28;20118;-72
2023/04/17 02:22:23;;;;;;;29.23;10.98;;;;;;;5.74;100.00;102718.69;4964394;28;20289;-72
2023/04/17 02:24:48;;;;;;;26.77;11.23;;;;;;;5.75;100.00;102725.69;4966542;28;20038;-72
2023/04/17 02:27:14;;;;;;;22.13;10.02;;;;;;;5.73;100.00;102720.44;4964358;28;20038;-73
2023/04/17 02:29:40;;;;;;;27.45;12.25;;;;;;;5.73;100.00;102714.28;4966551;28;20371;-73
2023/04/17 02:32:05;;;;;;;29.50;10.68;;;;;;;5.74;100.00;102711.69;4978439;28;20038;-72
2023/04/17 02:34:31;;;;;;;25.20;10.40;;;;;;;5.76;100.00;102709.03;4966049;28;20072;-72
2023/04/17 02:36:57;;;;;;;27.52;11.50;;;;;;;5.77;100.00;102709.06;4962547;28;20051;-72
2023/04/17 02:39:23;;;;;;;24.58;10.93;;;;;;;5.75;100.00;102718.69;4964650;28;20418;-72
2023/04/17 02:41:48;;;;;;;25.45;11.13;;;;;;;5.73;100.00;102709.94;4964842;28;20043;-72
2023/04/17 02:44:14;;;;;;;33.05;11.95;;;;;;;5.71;100.00;102717.81;4947765;28;20057;-72
2023/04/17 02:46:40;;;;;;;26.80;10.80;;;;;;;5.63;100.00;102714.25;4963923;28;20713;-72
2023/04/17 02:49:05;;;;;;;21.85;10.10;;;;;;;5.60;100.00;102713.38;4966352;28;21037;-72
2023/04/17 02:51:31;;;;;;;29.33;11.50;;;;;;;5.54;100.00;102712.47;4965546;28;20045;-73
2023/04/17 02:53:56;;;;;;;27.58;11.38;;;;;;;5.55;100.00;102708.06;4947309;28;20042;-73
2023/04/17 02:56:22;;;;;;;27.75;11.27;;;;;;;5.54;100.00;102704.56;4966065;28;20034;-72
2023/04/17 02:58:47;;;;;;;30.52;11.52;;;;;;;5.51;100.00;102715.03;4965704;28;20050;-73
2023/04/17 03:01:13;;;;;;;23.40;10.55;;;;;;;5.46;100.00;102714.16;4980454;28;20594;-72
2023/04/17 03:03:39;;;;;;;28.58;11.27;;;;;;;5.46;100.00;102708.03;4964175;28;20042;-72
2023/04/17 03:06:05;;;;;;;25.58;11.60;;;;;;;5.46;100.00;102711.53;4967711;28;20030;-73
2023/04/17 03:08:34;;;;;;;25.10;11.95;;;;;;;5.47;100.00;102707.16;4968944;28;20128;-73
2023/04/17 03:11:01;;;;;;;26.63;11.77;;;;;;;5.47;100.00;102708.03;4966919;28;20997;-72
2023/04/17 03:13:26;;;;;;;26.40;11.63;;;;;;;5.45;100.00;102704.50;4958812;28;20042;-72
2023/04/17 03:15:52;;;;;;;28.85;12.05;;;;;;;5.43;100.00;102699.25;4963650;28;20754;-73
2023/04/17 03:18:17;;;;;;;24.23;10.88;;;;;;;5.44;100.00;102708.00;4962945;28;20552;-73
2023/04/17 03:20:43;;;;;;;33.83;12.50;;;;;;;5.41;100.00;102702.75;4963079;28;20135;-73
2023/04/17 03:23:08;;;;;;;30.95;11.88;;;;;;;5.41;100.00;102702.75;4962037;28;20042;-73
2023/04/17 03:25:34;;;;;;;30.30;11.75;;;;;;;5.44;100.00;102702.75;4959833;28;20038;-73
2023/04/17 03:27:59;;;;;;;29.10;11.70;;;;;;;5.41;100.00;102698.34;4963428;28;20037;-73
2023/04/17 03:30:25;;;;;;;32.22;12.00;;;;;;;5.41;100.00;102693.09;4959958;28;20057;-74
2023/04/17 03:32:50;;;;;;;34.90;11.70;;;;;;;5.43;100.00;102707.13;4977590;28;20302;-72
2023/04/17 03:35:16;;;;;;;29.17;12.10;;;;;;;5.46;100.00;102697.50;4963245;28;20125;-73
2023/04/17 03:37:41;;;;;;;32.63;12.63;;;;;;;5.47;100.00;102701.88;4977278;28;20493;-72
2023/04/17 03:40:07;;;;;;;35.42;11.23;;;;;;;5.49;100.00;102700.16;4959659;28;20497;-73
2023/04/17 03:42:32;;;;;;;37.00;11.30;;;;;;;5.46;100.00;102706.28;4977756;28;20622;-72
2023/04/17 03:44:58;;;;;;;44.80;12.73;;;;;;;5.43;100.00;102701.88;4978091;28;20042;-73
2023/04/17 03:47:24;;;;;;;36.67;12.05;;;;;;;5.44;100.00;102711.53;4963101;28;20103;-73
2023/04/17 03:49:49;;;;;;;30.90;11.95;;;;;;;5.46;100.00;102714.16;4978325;28;20146;-72
2023/04/17 03:52:15;;;;;;;40.55;12.63;;;;;;;5.44;100.00;102716.78;4963066;28;20096;-72
2023/04/17 03:54:41;;;;;;;44.05;12.90;;;;;;;5.44;100.00;102710.63;4963614;28;20137;-72
2023/04/17 03:57:06;;;;;;;33.78;11.95;;;;;;;5.42;100.00;102709.75;4961750;28;20050;-73
2023/04/17 03:59:33;;;;;;;30.88;12.65;;;;;;;5.41;100.00;102706.22;4928651;28;20041;-73
2023/04/17 04:01:58;;;;;;;30.85;12.07;;;;;;;5.41;100.00;102715.88;4959615;28;20097;-72
2023/04/17 04:04:24;;;;;;;30.20;12.88;;;;;;;5.42;100.00;102721.16;4961112;28;20118;-72
2023/04/17 04:06:51;;;;;;;24.08;12.40;;;;;;;5.41;100.00;102719.38;4960414;28;20046;-72
2023/04/17 04:09:17;;;;;;;38.92;12.95;;;;;;;5.39;100.00;102726.38;4961991;28;20053;-72
2023/04/17 04:11:42;;;;;;;33.80;12.88;;;;;;;5.38;100.00;102724.63;4943273;28;20512;-72
2023/04/17 04:14:08;;;;;;;35.80;13.13;;;;;;;5.38;100.00;102734.22;4959582;28;20604;-72
2023/04/17 04:16:33;;;;;;;40.80;11.52;;;;;;;5.38;100.00;102740.38;4961178;28;20045;-73
2023/04/17 04:18:59;;;;;;;37.60;11.93;;;;;;;5.35;100.00;102737.75;4944685;28;20097;-73
2023/04/17 04:21:24;;;;;;;35.13;12.50;;;;;;;5.36;100.00;102742.13;4962512;28;20038;-73
2023/04/17 04:23:50;;;;;;;36.53;13.13;;;;;;;5.36;100.00;102746.47;4961875;28;20045;-73
2023/04/17 04:26:15;;;;;;;35.35;12.43;;;;;;;5.39;100.00;102751.78;4960618;28;20058;-74
2023/04/17 04:28:42;;;;;;;41.67;11.85;;;;;;;5.37;100.00;102748.25;4961919;28;20034;-73
2023/04/17 04:31:08;;;;;;;34.17;12.38;;;;;;;5.37;100.00;102741.25;4962159;28;20042;-73
2023/04/17 04:33:34;;;;;;;38.45;10.73;;;;;;;5.37;100.00;102746.50;4976510;28;21481;-73
2023/04/17 04:36:00;;;;;;;36.83;10.75;;;;;;;5.35;100.00;102743.00;4944358;28;20180;-73
2023/04/17 04:38:30;;;;;;;35.75;12.15;;;;;;;5.33;100.00;102735.97;4960332;28;20038;-73
2023/04/17 04:41:00;;;;;;;52.13;11.23;;;;;;;5.27;100.00;102747.28;4943789;28;20065;-73
2023/04/17 04:43:28;;;;;;;30.20;11.38;;;;;;;5.24;100.00;102744.66;4975042;28;20797;-72
2023/04/17 04:45:54;;;;;;;44.97;11.35;;;;;;;5.20;100.00;102741.13;4942699;28;20050;-73
2023/04/17 04:48:20;;;;;;;51.80;12.52;;;;;;;5.20;100.00;102746.38;4958413;28;20065;-73
2023/04/17 04:50:46;;;;;;;38.45;12.07;;;;;;;5.22;100.00;102751.66;4960549;28;20590;-73
2023/04/17 04:53:11;;;;;;;53.50;12.98;;;;;;;5.23;100.00;102751.63;4962465;28;20034;-72
2023/04/17 04:55:37;;;;;;;36.10;13.10;;;;;;;5.26;100.00;102762.19;4958429;28;20066;-73
2023/04/17 04:58:02;;;;;;;58.92;12.55;;;;;;;5.26;100.00;102751.69;4961790;28;20066;-73
2023/04/17 05:00:27;;;;;;;41.83;11.77;;;;;;;5.27;100.00;102761.31;4962140;28;20046;-73
2023/04/17 05:02:53;;;;;;;43.80;12.70;;;;;;;5.27;100.00;102761.31;4957379;28;20041;-73
2023/04/17 05:05:19;;;;;;;31.20;12.20;;;;;;;5.27;100.00;102761.31;4941758;28;20185;-73
2023/04/17 05:07:44;;;;;;;36.30;11.82;;;;;;;5.25;100.00;102763.06;4962166;28;20619;-73
2023/04/17 05:10:10;;;;;;;38.03;11.65;;;;;;;5.23;100.00;102770.03;4961043;28;20132;-72
2023/04/17 05:12:36;;;;;;;40.75;11.30;;;;;;;5.25;100.00;102773.56;4959939;28;20038;-72
2023/04/17 05:15:01;;;;;;;56.10;11.95;;;;;;;5.24;100.00;102787.53;4944224;28;20046;-72
2023/04/17 05:17:26;;;;;;;33.72;11.95;;;;;;;5.24;100.00;102778.78;4963303;28;20509;-72
2023/04/17 05:19:52;;;;;;;42.28;12.25;;;;;;;5.23;100.00;102774.41;4965578;28;20093;-73
2023/04/17 05:22:18;;;;;;;41.67;11.55;;;;;;;5.24;100.00;102773.53;4964472;28;21438;-72
2023/04/17 05:24:43;;;;;;;39.22;12.02;;;;;;;5.28;100.00;102791.97;4965517;28;20644;-72
2023/04/17 05:27:08;;;;;;;40.70;12.45;;;;;;;5.28;100.00;102793.69;4965329;28;21088;-72
2023/04/17 05:29:37;;;;;;;35.05;11.88;;;;;;;5.27;100.00;102797.19;4964444;28;20710;-72
2023/04/17 05:32:03;;;;;;;37.15;11.40;;;;;;;5.26;100.00;102798.97;4965223;28;20121;-72
2023/04/17 05:34:28;;;;;;;36.20;12.18;;;;;;;5.25;100.00;102799.81;4947778;28;20042;-72
2023/04/17 05:36:54;;;;;;;40.10;11.02;;;;;;;5.26;100.00;102791.09;4945067;28;20084;-72
2023/04/17 05:39:20;;;;;;;37.05;11.75;;;;;;;5.27;100.00;102795.47;4928844;28;20077;-72
2023/04/17 05:41:46;;;;;;;34.90;11.35;;;;;;;5.30;100.00;102799.88;4964970;28;20048;-72
2023/04/17 05:44:11;;;;;;;38.65;11.57;;;;;;;5.32;100.00;102803.38;4963400;28;20422;-72
2023/04/17 05:46:37;;;;;;;34.53;11.35;;;;;;;5.29;100.00;102798.97;4964773;28;21553;-72
2023/04/17 05:49:02;;;;;;;39.67;12.07;;;;;;;5.29;100.00;102798.09;4944858;28;20042;-72
2023/04/17 05:51:28;;;;;;;30.90;10.80;;;;;;;5.32;100.00;102798.13;4965487;28;20363;-72
2023/04/17 05:53:54;;;;;;;48.03;12.05;;;;;;;5.33;100.00;102804.25;4963417;28;20866;-72
2023/04/17 05:56:30;;;;;;;34.70;12.63;;;;;;;5.33;100.00;102805.13;4945066;28;20066;-72
2023/04/17 05:58:55;;;;;;;36.30;11.75;;;;;;;5.33;100.00;102809.50;4962422;28;20038;-73
2023/04/17 06:01:21;;;;;;;33.08;11.25;;;;;;;5.33;100.00;102809.50;4963702;28;20992;-72
2023/04/17 06:03:47;;;;;;;36.38;11.18;;;;;;;5.32;100.00;102816.50;4946680;28;21162;-72
2023/04/17 06:06:13;;;;;;;36.13;10.85;;;;;;;5.34;100.00;102808.66;4972715;28;20403;-72
2023/04/17 06:08:38;;;;;;;36.88;12.48;;;;;;;5.35;100.00;102807.78;4964085;28;20039;-72
2023/04/17 06:11:04;;;;;;;41.38;12.00;;;;;;;5.37;100.00;102811.28;4964577;28;20042;-72
2023/04/17 06:13:29;;;;;;;44.40;12.70;;;;;;;5.40;100.00;102812.19;4962918;28;20069;-72
2023/04/17 06:15:55;;;;;;;33.53;12.23;;;;;;;5.44;100.00;102819.25;4977110;28;20065;-72
2023/04/17 06:18:20;;;;;;;34.35;12.32;;;;;;;5.49;100.00;102826.28;4974722;28;20046;-72
2023/04/17 06:20:46;;;;;;;32.53;13.05;;;;;;;5.51;100.00;102820.16;4947278;28;20042;-72
2023/04/17 06:23:12;;;;;;;36.33;13.20;;;;;;;5.56;100.00;102826.31;4944489;28;20048;-72
2023/04/17 06:25:37;;;;;;;32.58;12.10;;;;;;;5.60;100.00;102821.09;4947205;28;20036;-74
2023/04/17 06:28:03;;;;;;;43.10;12.65;;;;;;;5.65;100.00;102829.88;4964142;28;20604;-73
2023/04/17 06:30:29;;;;;;;44.78;12.38;;;;;;;5.65;100.00;102816.75;4964094;28;20267;-73
2023/04/17 06:32:55;;;;;;;46.28;12.93;;;;;;;5.64;100.00;102818.50;4962443;28;20053;-73
2023/04/17 06:35:20;;;;;;;40.28;12.80;;;;;;;5.66;100.00;102824.66;4964416;28;20097;-73
2023/04/17 06:37:46;;;;;;;38.10;12.40;;;;;;;5.69;100.00;102824.69;4944932;28;20038;-73
2023/04/17 06:40:12;;;;;;;38.80;12.88;;;;;;;5.71;100.00;102816.78;4977254;28;20104;-73
2023/04/17 06:42:37;;;;;;;39.75;12.02;;;;;;;5.75;100.00;102825.56;4950339;28;20074;-73
2023/04/17 06:45:04;;;;;;;31.33;12.63;;;;;;;5.72;100.00;102826.41;4961643;28;20042;-73
2023/04/17 06:47:29;;;;;;;31.52;11.68;;;;;;;5.71;100.00;102824.66;4961509;28;20248;-73
2023/04/17 06:49:56;;;;;;;31.05;12.05;;;;;;;5.72;100.00;102823.78;4937591;28;20026;-76
2023/04/17 06:52:22;;;;;;;40.25;12.27;;;;;;;5.73;100.00;102830.84;4968517;28;20046;-73
2023/04/17 06:54:48;;;;;;;38.60;12.23;;;;;;;5.76;100.00;102830.84;4960023;28;20038;-73
2023/04/17 06:57:13;;;;;;;34.38;12.55;;;;;;;5.79;100.00;102836.13;4944828;28;20981;-73
2023/04/17 06:59:39;;;;;;;32.97;11.80;;;;;;;5.85;100.00;102837.91;4961556;28;20493;-73
2023/04/17 07:02:05;;;;;;;35.78;12.65;;;;;;;5.86;100.00;102831.78;4942149;28;20049;-73
2023/04/17 07:04:30;;;;;;;33.15;12.25;;;;;;;5.85;100.00;102840.53;4960403;28;20141;-74
2023/04/17 07:06:56;;;;;;;32.03;12.27;;;;;;;5.88;100.00;102851.06;4956182;28;20054;-73
2023/04/17 07:09:22;;;;;;;29.77;11.27;;;;;;;5.90;100.00;102851.09;4942391;28;20039;-73
2023/04/17 07:11:47;;;;;;;32.28;11.52;;;;;;;5.95;100.00;102855.50;4963163;28;20045;-73
2023/04/17 07:14:13;;;;;;;32.15;12.00;;;;;;;5.98;100.00;102852.00;4960433;28;20065;-73
2023/04/17 07:16:38;;;;;;;32.25;11.57;;;;;;;5.96;100.00;102859.00;4962940;28;20341;-72
2023/04/17 07:19:04;;;;;;;35.20;12.55;;;;;;;5.95;100.00;102858.13;4964446;28;20039;-77
2023/04/17 07:21:29;;;;;;;27.10;10.75;;;;;;;6.02;100.00;102866.06;4960846;28;20038;-74
2023/04/17 07:23:55;;;;;;;26.48;10.85;;;;;;;6.02;100.00;102868.69;4961361;28;21443;-73
2023/04/17 07:26:21;;;;;;;31.02;11.77;;;;;;;6.01;100.00;102877.44;4959626;28;20039;-73
2023/04/17 07:28:47;;;;;;;25.70;10.70;;;;;;;6.00;100.00;102881.84;4963524;28;22125;-73
2023/04/17 07:31:12;;;;;;;28.23;11.23;;;;;;;6.01;100.00;102883.59;4963024;28;20038;-74
2023/04/17 07:33:38;;;;;;;30.42;11.65;;;;;;;6.03;100.00;102887.13;4961117;28;20030;-73
2023/04/17 07:36:04;;;;;;;26.23;11.48;;;;;;;6.06;100.00;102881.88;4963046;28;20053;-73
2023/04/17 07:38:32;;;;;;;31.60;11.82;;;;;;;6.08;100.00;102872.28;4976821;28;20046;-74
2023/04/17 07:40:58;;;;;;;32.85;12.23;;;;;;;6.11;100.00;102885.44;4959178;28;20477;-74
2023/04/17 07:43:27;;;;;;;27.20;11.68;;;;;;;6.10;100.00;102883.69;4970889;28;20324;-74
2023/04/17 07:45:53;;;;;;;26.77;11.63;;;;;;;6.17;100.00;102888.97;4959524;28;20030;-74
2023/04/17 07:48:21;;;;;;;30.27;12.25;;;;;;;6.20;100.00;102881.09;4972370;28;20178;-74
2023/04/17 07:50:47;;;;;;;34.03;12.60;;;;;;;6.27;100.00;102885.53;4970614;28;20744;-74
2023/04/17 07:53:13;;;;;;;32.10;12.65;;;;;;;6.31;100.00;102882.03;4950803;28;20117;-74
2023/04/17 07:55:38;;;;;;;31.85;12.02;;;;;;;6.37;100.00;102879.44;4941533;28;20979;-74
2023/04/17 07:58:05;;;;;;;32.90;12.57;;;;;;;6.44;100.00;102890.00;4940291;28;20043;-74
2023/04/17 08:00:31;;;;;;;30.67;11.60;;;;;;;6.52;100.00;102885.63;4956320;28;20030;-74
2023/04/17 08:02:57;;;;;;;33.67;12.98;;;;;;;6.60;100.00;102889.19;4942146;28;20728;-74
2023/04/17 08:05:23;;;;;;;32.47;12.13;;;;;;;6.69;100.00;102890.09;4937958;28;20066;-73
2023/04/17 08:07:48;;;;;;;30.38;12.20;;;;;;;6.79;100.00;102891.88;4928691;28;20635;-74
2023/04/17 08:10:14;;;;;;;35.53;13.27;;;;;;;6.84;100.00;102890.16;4937414;28;20128;-73
2023/04/17 08:12:40;;;;;;;32.25;13.23;;;;;;;6.88;100.00;102894.56;4944564;28;20038;-73
2023/04/17 08:15:06;;;;;;;31.58;12.02;;;;;;;6.96;100.00;102888.44;4916303;28;20046;-73
2023/04/17 08:17:33;;;;;;;29.95;12.20;;;;;;;7.05;100.00;102898.97;4934225;28;20041;-73
2023/04/17 08:20:00;;;;;;;28.73;11.57;;;;;;;7.11;100.00;102898.09;4932775;28;20497;-76
2023/04/17 08:22:27;;;;;;;26.73;12.00;;;;;;;7.16;100.00;102891.09;4933444;28;20043;-78
2023/04/17 08:24:56;;;;;;;27.40;12.65;;;;;;;7.19;100.00;102899.88;4931302;28;20237;-75
2023/04/17 08:27:25;;;;;;;30.70;13.00;;;;;;;7.28;100.00;102898.13;4950523;28;20966;-74
2023/04/17 08:29:53;;;;;;;27.38;12.40;;;;;;;7.28;100.00;102895.50;4947801;28;22074;-75
2023/04/17 08:32:20;;;;;;;31.92;13.30;;;;;;;7.35;100.00;102897.25;4934665;28;20047;-73
2023/04/17 08:34:45;;;;;;;24.45;12.27;;;;;;;7.41;100.00;102893.78;4930223;28;20047;-74
2023/04/17 08:37:11;;;;;;;25.40;11.57;;;;;;;7.51;100.00;102902.56;4937495;28;20050;-74
2023/04/17 08:39:37;;;;;;;25.83;12.02;;;;;;;7.56;100.00;102909.59;4929792;28;20035;-74
2023/04/17 08:42:07;;;;;;;25.90;11.95;;;;;;;7.66;100.00;102899.03;4939330;28;20082;-75
2023/04/17 08:44:33;;;;;;;26.25;11.82;;;;;;;7.70;100.00;102906.97;4965981;28;20109;-75
2023/04/17 08:46:58;;;;;;;26.50;12.60;;;;;;;7.83;100.00;102897.28;4935558;28;20043;-74
2023/04/17 08:49:27;;;;;;;28.00;12.15;;;;;;;7.98;100.00;102900.78;4936042;28;20479;-75
2023/04/17 08:51:52;;;;;;;24.95;11.85;;;;;;;8.11;100.00;102906.88;4951584;28;20646;-72
2023/04/17 08:54:20;;;;;;;24.35;12.57;;;;;;;8.17;100.00;102904.25;4957792;28;20042;-74
2023/04/17 08:56:47;;;;;;;23.50;11.68;;;;;;;8.27;100.00;102907.72;4940854;28;20088;-73
2023/04/17 08:59:12;;;;;;;25.50;11.88;;;;;;;8.36;100.00;102902.44;4930744;28;20049;-74
2023/04/17 09:01:38;;;;;;;23.90;12.05;;;;;;;8.50;100.00;102912.94;4942232;28;20062;-74
2023/04/17 09:04:04;;;;;;;23.08;11.57;;;;;;;8.62;100.00;102905.91;4956030;28;20065;-73
2023/04/17 09:06:48;;;;;;;23.80;11.05;;;;;;;8.69;100.00;102900.59;4959352;28;20216;-74
2023/04/17 09:09:13;;;;;;;20.98;10.27;;;;;;;8.71;100.00;102903.22;4951636;28;20141;-74
2023/04/17 09:11:39;;;;;;;19.88;10.32;;;;;;;8.76;100.00;102905.84;4955819;28;20914;-74
2023/04/17 09:14:04;;;;;;;19.08;10.52;;;;;;;8.72;100.00;102907.59;4959273;28;20073;-72
2023/04/17 09:16:30;;;;;;;16.92;10.02;;;;;;;8.71;100.00;102907.63;4936062;28;20042;-73
2023/04/17 09:19:05;;;;;;;17.65;9.38;;;;;;;8.73;100.00;102900.56;4953623;28;20486;-75
2023/04/17 09:21:31;;;;;;;18.40;10.00;;;;;;;8.72;100.00;102894.41;4956727;28;20073;-72
2023/04/17 09:23:58;;;;;;;20.83;9.60;;;;;;;8.75;100.00;102897.03;4971822;28;20240;-72
2023/04/17 09:26:30;;;;;;;18.58;9.18;;;;;;;8.84;100.00;102904.06;4958991;28;20128;-74
2023/04/17 09:29:03;;;;;;;18.48;8.98;;;;;;;8.93;100.00;102911.06;4958526;28;20034;-73
2023/04/17 09:31:30;;;;;;;19.90;10.02;;;;;;;9.03;100.00;102915.38;4954994;28;21204;-74
2023/04/17 09:34:00;;;;;;;18.77;10.40;;;;;;;9.14;100.00;102917.09;4954983;28;20042;-74
2023/04/17 09:36:30;;;;;;;18.45;9.75;;;;;;;9.24;100.00;102924.06;4937218;28;20038;-74
2023/04/17 09:38:58;;;;;;;18.10;10.40;;;;;;;9.30;100.00;102913.44;4938262;28;20034;-75
2023/04/17 09:41:31;;;;;;;19.95;10.38;;;;;;;9.41;100.00;102916.00;4969290;28;21322;-74
2023/04/17 09:44:04;;;;;;;18.38;10.48;;;;;;;9.44;100.00;102918.66;4952002;28;20046;-73
2023/04/17 09:46:37;;;;;;;25.77;11.82;;;;;;;9.51;100.00;102914.19;4953358;28;20046;-72
2023/04/17 09:49:17;;;;;;;22.85;10.77;;;;;;;9.59;100.00;102912.34;4952077;28;20042;-75
2023/04/17 09:51:44;;;;;;;23.80;11.65;;;;;;;9.71;100.00;102908.75;4934446;28;20043;-73
2023/04/17 09:54:11;;;;;;;27.30;11.98;;;;;;;9.87;100.00;102906.81;4950943;28;20046;-74
2023/04/17 09:56:36;;;;;;;24.58;11.73;;;;;;;9.97;100.00;102904.09;4954232;28;20035;-74
2023/04/17 09:59:06;;;;;;;23.98;11.70;;;;;;;10.01;100.00;102896.09;4956581;28;20042;-74
2023/04/17 10:01:32;;;;;;;22.17;11.50;;;;;;;10.03;100.00;102898.75;4953983;28;20379;-74
2023/04/17 10:03:58;;;;;;;21.48;11.63;;;;;;;10.12;100.00;102903.94;4935349;28;20092;-76
2023/04/17 10:06:27;;;;;;;19.60;10.38;;;;;;;10.15;100.00;102903.88;4919477;28;20137;-72
2023/04/17 10:08:53;;;;;;;20.60;10.82;;;;;;;10.25;100.00;102902.00;4952553;28;20812;-72
2023/04/17 10:11:22;;;;;;;18.15;10.70;;;;;;;10.37;100.00;102903.66;4934547;28;20030;-72
2023/04/17 10:13:52;;;;;;;17.13;9.60;;;;;;;10.44;100.00;102905.38;4956782;28;20121;-73
2023/04/17 10:16:17;;;;;;;15.90;9.05;;;;;;;10.58;100.00;102901.69;4971101;28;20551;-72
2023/04/17 10:18:43;;;;;;;17.13;9.75;;;;;;;10.75;100.00;102900.56;4956353;28;20038;-73
2023/04/17 10:21:24;;;;;;;18.00;9.65;;;;;;;10.80;100.00;102890.78;4953664;28;20049;-71
2023/04/17 10:23:49;;;;;;;17.30;9.70;;;;;;;10.80;100.00;102902.28;4937822;28;20042;-74
2023/04/17 10:26:24;;;;;;;15.75;9.73;;;;;;;10.83;100.00;102893.38;4936885;28;20735;-72
2023/04/17 10:28:51;;;;;;;14.73;8.98;;;;;;;10.78;100.00;102895.25;4948553;28;20039;-72
2023/04/17 10:31:18;;;;;;;16.50;9.70;;;;;;;10.78;100.00;102896.09;4952980;28;20038;-72
2023/04/17 10:33:48;;;;;;;14.70;8.98;;;;;;;10.84;100.00;102903.13;4932623;28;20034;-74
2023/04/17 10:36:39;;;;;;;15.07;8.85;;;;;;;11.01;100.00;102892.28;4952851;28;20108;-72
2023/04/17 10:39:11;;;;;;;17.08;9.18;;;;;;;11.21;100.00;102888.44;4932624;28;20130;-72
2023/04/17 10:42:03;;;;;;;15.52;9.85;;;;;;;11.24;100.00;102883.94;4968113;28;20065;-72
2023/04/17 10:44:33;;;;;;;15.93;9.65;;;;;;;11.37;100.00;102889.06;4953171;28;20034;-73
2023/04/17 10:47:05;;;;;;;15.88;10.07;;;;;;;11.46;100.00;102888.03;4955698;28;20493;-73
2023/04/17 10:49:49;;;;;;;16.98;10.10;;;;;;;11.48;100.00;102900.38;4948389;28;20050;-73
2023/04/17 10:52:40;;;;;;;17.55;10.32;;;;;;;11.45;100.00;102889.84;4953149;28;20070;-73
2023/04/17 10:55:08;;;;;;;17.10;9.68;;;;;;;11.39;100.00;102887.28;4969045;28;20951;-72
2023/04/17 10:58:01;;;;;;;16.08;9.50;;;;;;;11.40;100.00;102887.22;4932422;28;20078;-73
2023/04/17 11:00:34;;;;;;;15.93;9.63;;;;;;;11.46;100.00;102880.97;4965407;28;20053;-73
2023/04/17 11:03:03;;;;;;;14.60;9.25;;;;;;;11.49;100.00;102888.88;4933376;28;20560;-74
2023/04/17 11:05:30;;;;;;;14.45;8.82;;;;;;;11.45;100.00;102887.19;4952466;28;20048;-73
2023/04/17 11:07:56;;;;;;;11.98;8.32;;;;;;;11.53;100.00;102889.69;4955655;28;20140;-73